Coleman, Florida
Current Conditions -  °F | °C
As of 9:15 PM on Friday 24 Oct 2014 (Local Time) from KINF Reporting Station
Clear Clear  
Wind Chill: 61°   Ceiling: Unl
Heat Index: 61°   Visibility: 10mi
Dew Point: 55°   Wind: 3mph
Humidity: 82%   Direction: 20°NNE
Pressure: 29.99"   Gusts: NA
Location:  28.8°N, 82.07°W
Report Text: KINF 250115Z AUTO 02003KT 10SM CLR 16/13 A2999 RMK AO2
Loading
Personal Weather Stations






























Interactive Weather Map
Tropical Storm Tracking
New forecast layout! Learn more

10-Day Weather Forecast

Advertisements
Track Severe Weather on mobile